createdAt,value
2022-11-12T00:01:20.359Z,1.75
2022-11-12T00:06:21.873Z,1.92
2022-11-12T00:11:23.338Z,4.03
2022-11-12T00:16:24.759Z,2.17
2022-11-12T00:21:26.239Z,1.85
2022-11-12T00:26:27.698Z,1.73
2022-11-12T00:31:29.228Z,2.13
2022-11-12T00:36:30.849Z,2.78
2022-11-12T00:41:32.245Z,3.92
2022-11-12T00:46:33.697Z,1.83
2022-11-12T00:51:35.313Z,0.45
2022-11-12T00:56:36.863Z,3.63
2022-11-12T01:01:38.621Z,1.08
2022-11-12T01:06:40.768Z,2.08
2022-11-12T01:11:42.241Z,2.00
2022-11-12T01:16:43.838Z,2.58
2022-11-12T01:21:45.363Z,2.08
2022-11-12T01:26:48.111Z,3.05
2022-11-12T01:31:49.603Z,1.92
2022-11-12T01:36:51.078Z,0.68
2022-11-12T01:41:52.517Z,2.25
2022-11-12T01:47:10.685Z,0.28
2022-11-12T01:52:29.436Z,3.33
2022-11-12T01:57:38.126Z,2.28
2022-11-12T02:02:40.560Z,1.10
2022-11-12T02:07:44.578Z,3.30
2022-11-12T02:12:46.654Z,4.40
2022-11-12T02:17:48.185Z,2.58
2022-11-12T02:22:49.617Z,1.83
2022-11-12T02:27:54.026Z,0.70
2022-11-12T02:32:55.504Z,2.20
2022-11-12T02:37:56.965Z,0.43
2022-11-12T02:42:58.497Z,0.50
2022-11-12T02:48:00.045Z,1.92
2022-11-12T02:53:01.464Z,3.20
2022-11-12T02:58:02.943Z,1.05
2022-11-12T03:03:04.638Z,2.10
2022-11-12T03:08:08.632Z,1.40
2022-11-12T03:13:10.146Z,4.53
2022-11-12T03:18:11.754Z,0.55
2022-11-12T03:23:13.229Z,1.00
2022-11-12T03:28:16.373Z,1.52
2022-11-12T03:33:17.823Z,2.45
2022-11-12T03:38:19.291Z,2.03
2022-11-12T03:43:20.827Z,2.83
2022-11-12T03:48:22.553Z,7.00
2022-11-12T03:53:24.631Z,2.30
2022-11-12T03:58:26.389Z,4.88
2022-11-12T04:03:28.070Z,2.28
2022-11-12T04:08:29.561Z,1.35
2022-11-12T04:13:31.211Z,3.65
2022-11-12T04:18:32.678Z,1.67
2022-11-12T04:23:34.107Z,2.15
2022-11-12T04:28:35.525Z,3.10
2022-11-12T04:33:37.035Z,2.97
2022-11-12T04:38:38.567Z,3.85
2022-11-12T04:43:39.965Z,1.00
2022-11-12T04:48:41.473Z,2.58
2022-11-12T04:53:42.988Z,0.93
2022-11-12T04:58:44.571Z,1.33
2022-11-12T05:03:46.053Z,1.38
2022-11-12T05:08:47.563Z,0.95
2022-11-12T05:13:49.006Z,3.35
2022-11-12T05:18:50.542Z,2.85
2022-11-12T05:23:51.959Z,2.22
2022-11-12T05:28:53.416Z,2.20
2022-11-12T05:33:54.827Z,1.38
2022-11-12T05:38:56.333Z,1.85
2022-11-12T05:43:57.805Z,0.98
2022-11-12T05:48:59.270Z,2.05
2022-11-12T05:54:01.190Z,1.95
2022-11-12T05:59:05.487Z,0.65
2022-11-12T06:04:07.012Z,0.75
2022-11-12T06:09:09.325Z,0.93
2022-11-12T06:14:10.832Z,0.50
2022-11-12T06:19:12.333Z,3.90
2022-11-12T06:24:13.839Z,2.22
2022-11-12T06:29:15.294Z,2.28
2022-11-12T06:34:16.737Z,2.20
2022-11-12T06:39:18.194Z,1.30
2022-11-12T06:44:22.354Z,1.38
2022-11-12T06:49:24.070Z,2.05
2022-11-12T06:54:25.624Z,4.25
2022-11-12T06:59:27.109Z,1.90
2022-11-12T07:04:28.701Z,1.38
2022-11-12T07:09:30.132Z,1.75
2022-11-12T07:14:31.561Z,2.33
2022-11-12T07:19:32.989Z,2.92
2022-11-12T07:24:34.502Z,3.25
2022-11-12T07:29:47.574Z,1.52
2022-11-12T07:34:49.997Z,2.33
2022-11-12T07:39:51.445Z,3.17
2022-11-12T07:44:52.924Z,2.65
2022-11-12T07:49:54.407Z,4.75
2022-11-12T07:54:55.874Z,4.43
2022-11-12T07:59:57.335Z,14.57
2022-11-12T08:04:58.911Z,5.95
2022-11-12T08:10:00.390Z,4.90
2022-11-12T08:15:01.841Z,7.40
2022-11-12T08:20:03.548Z,7.68
2022-11-12T08:25:05.381Z,5.68
2022-11-12T08:30:07.790Z,4.93
2022-11-12T08:35:09.318Z,7.00
2022-11-12T08:40:11.560Z,4.30
2022-11-12T08:45:13.132Z,7.28
2022-11-12T08:50:14.672Z,4.10
2022-11-12T08:55:16.155Z,5.10
2022-11-12T09:00:18.048Z,5.30
2022-11-12T09:05:19.540Z,7.57
2022-11-12T09:10:20.916Z,5.20
2022-11-12T11:34:16.793Z,8.82
2022-11-12T11:39:53.829Z,3.40
2022-11-12T11:57:10.635Z,4.95
2022-11-12T12:02:26.517Z,4.90
2022-11-12T12:08:03.201Z,4.20
2022-11-12T12:13:38.806Z,3.78
2022-11-12T12:24:38.185Z,4.70
2022-11-12T12:29:53.697Z,4.32
2022-11-12T12:35:21.574Z,4.53
2022-11-12T15:23:53.051Z,5.60
2022-11-12T19:55:50.166Z,6.68
2022-11-12T20:00:51.838Z,14.55
2022-11-12T20:05:53.311Z,11.20
2022-11-12T20:10:54.835Z,11.25
2022-11-12T20:15:56.407Z,10.93
2022-11-12T20:20:58.095Z,7.43
2022-11-12T20:26:08.767Z,11.13
2022-11-12T20:31:15.985Z,7.25
2022-11-12T20:36:21.728Z,6.38
2022-11-12T20:46:26.721Z,6.20
2022-11-12T20:51:28.359Z,3.42
2022-11-12T20:56:30.742Z,3.42
2022-11-12T21:01:32.382Z,3.97
2022-11-12T21:06:33.921Z,3.85
2022-11-12T21:11:35.341Z,7.95
2022-11-12T21:16:36.728Z,5.03
2022-11-12T21:21:38.153Z,9.38
2022-11-12T21:26:39.745Z,3.42
2022-11-12T21:31:41.184Z,6.32
2022-11-12T21:36:42.809Z,3.63
2022-11-12T21:41:44.246Z,4.47
2022-11-12T21:46:45.649Z,2.83
2022-11-12T21:51:47.070Z,6.32
2022-11-12T21:56:48.488Z,5.78
2022-11-12T22:01:49.925Z,4.15
2022-11-12T22:06:51.396Z,4.55
2022-11-12T22:11:52.871Z,7.35
2022-11-12T22:16:54.276Z,4.15
2022-11-12T22:21:55.670Z,7.05
2022-11-12T22:26:58.941Z,7.88
2022-11-12T22:32:04.299Z,7.63
2022-11-12T22:37:05.806Z,5.65
2022-11-12T22:42:07.328Z,4.30
2022-11-12T22:47:08.797Z,8.63
2022-11-12T22:52:10.192Z,4.65
2022-11-12T22:57:11.627Z,8.60
2022-11-12T23:02:13.105Z,7.47
2022-11-12T23:07:14.698Z,5.13
2022-11-12T23:12:16.241Z,6.85
2022-11-12T23:17:17.718Z,8.93
2022-11-12T23:22:19.217Z,9.20
2022-11-12T23:27:20.614Z,9.05
2022-11-12T23:32:22.115Z,11.93
2022-11-12T23:37:23.578Z,6.43
2022-11-12T23:42:25.091Z,14.45
2022-11-12T23:47:26.774Z,10.18
2022-11-12T23:52:28.247Z,8.02
2022-11-12T23:57:29.691Z,10.57
